createdAt,value
2023-05-09T00:00:32.282Z,50.10
2023-05-09T00:03:02.427Z,53.25
2023-05-09T00:05:32.022Z,48.13
2023-05-09T00:08:01.388Z,50.47
2023-05-09T00:10:31.162Z,54.72
2023-05-09T00:13:01.185Z,48.00
2023-05-09T00:15:30.653Z,44.03
2023-05-09T00:18:00.129Z,54.00
2023-05-09T00:20:29.544Z,52.17
2023-05-09T00:22:59.791Z,47.13
2023-05-09T00:25:29.257Z,48.38
2023-05-09T00:27:58.624Z,51.78
2023-05-09T00:30:28.062Z,53.85
2023-05-09T00:32:57.448Z,54.35
2023-05-09T00:35:27.070Z,53.15
2023-05-09T00:37:56.501Z,50.30
2023-05-09T00:40:26.143Z,52.17
2023-05-09T00:42:58.393Z,51.50
2023-05-09T00:45:27.823Z,51.53
2023-05-09T00:47:57.589Z,47.40
2023-05-09T00:50:27.471Z,52.50
2023-05-09T00:52:56.928Z,51.30
2023-05-09T00:55:26.667Z,53.90
2023-05-09T00:57:56.204Z,49.08
2023-05-09T01:00:26.095Z,48.38
2023-05-09T01:02:56.508Z,47.97
2023-05-09T01:05:28.134Z,52.97
2023-05-09T01:08:06.131Z,53.97
2023-05-09T01:11:00.432Z,54.75
2023-05-09T01:14:06.402Z,55.78
2023-05-09T01:16:42.749Z,61.55
2023-05-09T01:19:18.311Z,52.65
2023-05-09T01:21:50.614Z,51.78
2023-05-09T01:26:55.533Z,49.92
2023-05-09T01:29:42.406Z,57.80
2023-05-09T01:32:16.067Z,47.72
2023-05-09T01:34:46.805Z,52.40
2023-05-09T01:37:17.554Z,55.72
2023-05-09T01:39:49.419Z,54.08
2023-05-09T01:42:20.397Z,58.28
2023-05-09T01:44:50.358Z,51.45
2023-05-09T01:47:21.032Z,58.22
2023-05-09T01:49:50.682Z,59.13
2023-05-09T01:52:21.410Z,51.42
2023-05-09T01:54:51.142Z,55.38
2023-05-09T01:57:21.790Z,57.03
2023-05-09T01:59:51.739Z,53.40
2023-05-09T02:02:21.420Z,54.58
2023-05-09T02:04:51.958Z,52.22
2023-05-09T02:07:21.462Z,56.60
2023-05-09T02:09:54.105Z,47.13
2023-05-09T02:12:25.664Z,54.90
2023-05-09T02:14:55.795Z,46.40
2023-05-09T02:17:25.197Z,48.38
2023-05-09T02:19:54.617Z,53.97
2023-05-09T02:22:24.091Z,51.67
2023-05-09T02:24:54.302Z,51.42
2023-05-09T02:27:23.979Z,47.03
2023-05-09T02:29:54.368Z,50.00
2023-05-09T02:32:25.828Z,54.55
2023-05-09T02:34:55.725Z,50.58
2023-05-09T02:37:26.491Z,47.47
2023-05-09T02:39:55.990Z,45.72
2023-05-09T02:42:26.718Z,52.53
2023-05-09T02:44:56.322Z,53.28
2023-05-09T02:47:25.877Z,45.08
2023-05-09T02:49:55.288Z,49.42
2023-05-09T02:52:24.710Z,49.00
2023-05-09T02:54:54.093Z,52.50
2023-05-09T02:57:24.018Z,49.05
2023-05-09T02:59:53.462Z,44.38
2023-05-09T03:02:23.880Z,40.33
2023-05-09T03:04:53.572Z,44.33
2023-05-09T03:07:22.939Z,38.55
2023-05-09T03:09:52.266Z,43.42
2023-05-09T03:12:21.721Z,46.75
2023-05-09T03:14:55.217Z,41.45
2023-05-09T03:17:25.706Z,45.17
2023-05-09T03:19:55.218Z,42.90
2023-05-09T03:22:24.587Z,40.20
2023-05-09T03:24:59.553Z,40.13
2023-05-09T03:27:29.060Z,37.50
2023-05-09T03:29:58.460Z,41.95
2023-05-09T03:32:29.479Z,38.28
2023-05-09T03:34:58.933Z,37.25
2023-05-09T03:37:30.093Z,44.13
2023-05-09T03:40:00.004Z,41.95
2023-05-09T03:42:31.749Z,41.28
2023-05-09T03:47:49.057Z,48.83
2023-05-09T03:50:18.882Z,46.83
2023-05-09T03:52:50.624Z,43.67
2023-05-09T03:55:20.246Z,40.25
2023-05-09T03:57:49.699Z,41.58
2023-05-09T04:00:20.232Z,44.55
2023-05-09T04:02:58.411Z,37.72
2023-05-09T04:05:35.755Z,37.42
2023-05-09T04:08:07.735Z,41.30
2023-05-09T04:10:37.204Z,40.47
2023-05-09T04:13:07.368Z,37.97
2023-05-09T04:15:37.994Z,36.65
2023-05-09T04:18:08.559Z,33.13
2023-05-09T04:20:38.421Z,40.83
2023-05-09T04:23:07.983Z,39.15
2023-05-09T04:25:37.491Z,36.97
2023-05-09T04:28:07.049Z,36.72
2023-05-09T04:30:37.296Z,37.55
2023-05-09T04:33:07.070Z,36.78
2023-05-09T04:35:36.670Z,31.75
2023-05-09T04:38:06.189Z,33.95
2023-05-09T04:40:35.798Z,39.53
2023-05-09T04:43:06.315Z,31.65
2023-05-09T04:45:35.859Z,33.45
2023-05-09T04:48:05.482Z,36.60
2023-05-09T04:50:34.969Z,36.00
2023-05-09T04:53:06.136Z,30.65
2023-05-09T04:55:35.839Z,29.25
2023-05-09T04:58:05.979Z,28.80
2023-05-09T05:00:35.341Z,28.80
2023-05-09T05:03:05.132Z,29.50
2023-05-09T05:05:37.247Z,25.90
2023-05-09T05:08:07.465Z,30.45
2023-05-09T05:10:40.536Z,24.48
2023-05-09T05:13:13.063Z,24.10
2023-05-09T05:15:46.384Z,25.27
2023-05-09T05:18:16.622Z,29.77
2023-05-09T05:20:46.243Z,29.70
2023-05-09T05:23:15.666Z,26.98
2023-05-09T05:25:45.097Z,24.88
2023-05-09T05:28:15.485Z,26.35
2023-05-09T05:30:45.263Z,22.42
2023-05-09T05:33:14.703Z,24.02
2023-05-09T05:35:44.286Z,24.35
2023-05-09T05:38:13.671Z,27.08
2023-05-09T05:40:44.102Z,24.00
2023-05-09T05:43:13.602Z,25.73
2023-05-09T05:45:43.221Z,23.88
2023-05-09T05:48:17.995Z,26.50
2023-05-09T05:50:48.962Z,27.27
2023-05-09T05:53:21.523Z,24.88
2023-05-09T05:55:53.493Z,26.15
2023-05-09T05:58:24.677Z,27.30
2023-05-09T06:00:54.502Z,29.73
2023-05-09T06:03:23.927Z,25.67
2023-05-09T06:06:03.414Z,26.85
2023-05-09T06:08:32.856Z,27.60
2023-05-09T06:11:03.521Z,30.55
2023-05-09T06:13:32.858Z,25.20
2023-05-09T06:16:18.745Z,24.63
2023-05-09T06:18:54.049Z,27.70
2023-05-09T06:21:25.074Z,22.90
2023-05-09T06:28:56.517Z,24.33
2023-05-09T06:31:26.365Z,26.23
2023-05-09T06:33:55.963Z,27.17
2023-05-09T06:36:25.340Z,20.45
2023-05-09T06:38:54.681Z,21.63
2023-05-09T06:41:24.421Z,23.55
2023-05-09T06:43:53.781Z,20.73
2023-05-09T06:46:23.260Z,21.48
2023-05-09T06:48:52.680Z,20.23
2023-05-09T06:51:22.048Z,20.83
2023-05-09T06:53:51.533Z,21.45
2023-05-09T06:56:22.903Z,20.33
2023-05-09T06:58:52.340Z,20.77
2023-05-09T07:01:21.976Z,21.08
2023-05-09T07:03:52.138Z,19.42
2023-05-09T07:06:21.633Z,19.33
2023-05-09T07:08:50.989Z,19.73
2023-05-09T07:11:21.263Z,20.08
2023-05-09T07:13:50.684Z,16.95
2023-05-09T07:16:23.097Z,17.30
2023-05-09T07:18:52.542Z,17.08
2023-05-09T07:21:21.893Z,15.82
2023-05-09T07:23:51.210Z,18.85
2023-05-09T07:26:21.421Z,16.55
2023-05-09T07:28:50.750Z,19.38
2023-05-09T07:31:20.103Z,15.65
2023-05-09T07:33:49.477Z,20.00
2023-05-09T07:36:18.819Z,19.80
2023-05-09T07:38:50.664Z,18.13
2023-05-09T07:41:21.387Z,15.75
2023-05-09T07:43:50.757Z,19.05
2023-05-09T07:46:20.209Z,21.15
2023-05-09T07:48:50.040Z,19.90
2023-05-09T07:51:19.359Z,15.95
2023-05-09T07:53:48.777Z,17.80
2023-05-09T07:56:18.128Z,18.50
2023-05-09T07:58:47.449Z,17.45
2023-05-09T08:01:16.844Z,16.00
2023-05-09T08:03:46.332Z,18.45
2023-05-09T08:06:15.811Z,17.05
2023-05-09T08:08:45.207Z,16.13
2023-05-09T08:11:14.571Z,16.75
2023-05-09T08:13:44.409Z,18.02
2023-05-09T08:16:13.926Z,15.35
2023-05-09T08:18:43.301Z,16.80
2023-05-09T08:21:12.633Z,16.23
2023-05-09T08:23:41.995Z,13.07
2023-05-09T08:26:11.409Z,14.63
2023-05-09T08:28:40.760Z,12.02
2023-05-09T08:31:10.175Z,14.77
2023-05-09T08:33:41.807Z,15.85
2023-05-09T08:36:11.639Z,12.05
2023-05-09T08:38:41.507Z,13.18
2023-05-09T08:41:10.910Z,13.13
2023-05-09T08:43:41.114Z,13.48
2023-05-09T08:46:12.251Z,13.30
2023-05-09T08:48:41.718Z,11.73
2023-05-09T08:51:11.656Z,13.77
2023-05-09T08:53:41.380Z,12.88
2023-05-09T08:56:10.951Z,13.13
2023-05-09T08:58:41.541Z,11.45
2023-05-09T09:01:12.152Z,15.13
2023-05-09T09:03:47.658Z,11.82
2023-05-09T09:06:17.325Z,13.65
2023-05-09T09:08:47.029Z,12.00
2023-05-09T09:11:17.766Z,11.10
2023-05-09T09:13:47.893Z,12.10
2023-05-09T09:16:21.065Z,10.63
2023-05-09T09:18:50.828Z,11.57
2023-05-09T09:21:21.096Z,12.38
2023-05-09T09:23:50.698Z,11.35
2023-05-09T09:26:20.077Z,9.38
2023-05-09T09:28:49.461Z,13.27
2023-05-09T09:31:36.708Z,9.88
2023-05-09T09:34:06.295Z,10.27
2023-05-09T09:36:36.851Z,9.32
2023-05-09T09:39:07.582Z,11.07
2023-05-09T09:41:37.739Z,9.15
2023-05-09T09:44:11.719Z,10.52
2023-05-09T09:46:58.904Z,8.82
2023-05-09T09:49:29.365Z,8.82
2023-05-09T09:51:59.708Z,7.85
2023-05-09T09:54:29.709Z,8.63
2023-05-09T09:56:59.073Z,8.93
2023-05-09T09:59:28.989Z,7.13
2023-05-09T10:01:58.317Z,8.05
2023-05-09T10:04:28.390Z,7.47
2023-05-09T10:06:58.417Z,11.45
2023-05-09T10:09:28.212Z,7.78
2023-05-09T10:11:58.118Z,9.15
2023-05-09T10:14:28.485Z,11.10
2023-05-09T10:16:58.535Z,8.20
2023-05-09T10:19:29.889Z,9.05
2023-05-09T10:22:00.343Z,9.83
2023-05-09T10:24:31.269Z,8.48
2023-05-09T10:27:04.851Z,8.18
2023-05-09T10:29:37.154Z,9.95
2023-05-09T10:32:20.891Z,7.15
2023-05-09T10:34:51.846Z,10.15
2023-05-09T10:37:21.516Z,8.95
2023-05-09T10:39:53.741Z,9.50
2023-05-09T10:42:23.219Z,7.97
2023-05-09T10:44:53.266Z,10.68
2023-05-09T10:47:23.705Z,7.30
2023-05-09T10:49:53.160Z,7.18
2023-05-09T10:52:26.021Z,9.10
2023-05-09T10:55:02.820Z,8.25
2023-05-09T10:57:33.065Z,6.50
2023-05-09T11:00:03.087Z,6.68
2023-05-09T11:02:35.050Z,10.73
2023-05-09T11:05:15.983Z,5.43
2023-05-09T11:07:46.272Z,6.35
2023-05-09T11:10:20.241Z,8.18
2023-05-09T11:12:58.056Z,8.02
2023-05-09T11:15:28.697Z,6.03
2023-05-09T11:18:08.529Z,6.53
2023-05-09T11:20:38.258Z,5.63
2023-05-09T11:23:07.916Z,6.22
2023-05-09T11:25:37.352Z,7.35
2023-05-09T11:28:06.842Z,6.90
2023-05-09T11:30:43.960Z,6.18
2023-05-09T11:33:26.677Z,8.07
2023-05-09T11:36:14.896Z,5.68
2023-05-09T11:38:44.888Z,7.85
2023-05-09T11:41:14.461Z,6.00
2023-05-09T11:43:45.434Z,8.40
2023-05-09T11:46:14.940Z,5.32
2023-05-09T11:48:45.015Z,4.95
2023-05-09T11:51:19.336Z,4.25
2023-05-09T11:53:54.214Z,3.58
2023-05-09T11:56:25.558Z,2.67
2023-05-09T11:58:55.116Z,4.95
2023-05-09T12:01:25.281Z,3.83
2023-05-09T12:03:54.812Z,3.80
2023-05-09T12:06:26.245Z,4.28
2023-05-09T12:08:58.075Z,5.77
2023-05-09T12:11:28.210Z,3.45
2023-05-09T12:13:57.576Z,3.25
2023-05-09T12:16:27.016Z,3.20
2023-05-09T12:18:56.574Z,3.08
2023-05-09T12:21:25.974Z,5.43
2023-05-09T12:23:58.404Z,4.35
2023-05-09T12:26:27.974Z,6.47
2023-05-09T12:28:57.406Z,4.80
2023-05-09T12:31:26.807Z,5.50
2023-05-09T12:33:56.356Z,7.75
2023-05-09T12:36:26.544Z,6.07
2023-05-09T12:38:58.802Z,5.00
2023-05-09T12:44:08.946Z,5.18
2023-05-09T12:46:38.427Z,7.47
2023-05-09T12:49:08.212Z,6.15
2023-05-09T12:51:37.650Z,7.28
2023-05-09T12:54:11.102Z,5.53
2023-05-09T12:56:42.018Z,5.55
2023-05-09T12:59:15.017Z,5.70
2023-05-09T13:01:44.442Z,7.47
2023-05-09T13:04:14.005Z,5.32
2023-05-09T13:06:50.755Z,4.57
2023-05-09T13:09:20.958Z,5.20
2023-05-09T13:11:50.791Z,6.65
2023-05-09T13:14:20.607Z,5.25
2023-05-09T13:16:50.267Z,5.70
2023-05-09T13:19:19.765Z,6.18
2023-05-09T13:21:49.218Z,5.15
2023-05-09T13:24:18.754Z,5.10
2023-05-09T13:26:48.175Z,5.28
2023-05-09T13:29:17.589Z,5.80
2023-05-09T13:31:46.962Z,4.43
2023-05-09T13:34:16.573Z,5.78
2023-05-09T13:36:45.937Z,3.65
2023-05-09T13:39:15.346Z,5.50
2023-05-09T13:41:44.712Z,5.72
2023-05-09T13:44:14.157Z,3.15
2023-05-09T13:46:43.676Z,4.18
2023-05-09T13:49:13.167Z,2.85
2023-05-09T13:51:42.582Z,3.25
2023-05-09T13:54:13.209Z,2.08
2023-05-09T13:56:42.983Z,4.75
2023-05-09T13:59:12.506Z,3.83
2023-05-09T14:01:41.942Z,3.40
2023-05-09T14:04:11.367Z,2.20
2023-05-09T14:06:40.859Z,3.55
2023-05-09T14:09:10.296Z,3.28
2023-05-09T14:11:39.712Z,3.60
2023-05-09T14:14:09.082Z,3.67
2023-05-09T14:16:38.982Z,3.67
2023-05-09T14:19:08.935Z,5.22
2023-05-09T14:21:38.437Z,3.83
2023-05-09T14:24:08.089Z,4.47
2023-05-09T14:26:37.529Z,4.05
2023-05-09T14:29:07.649Z,4.70
2023-05-09T14:31:37.128Z,3.47
2023-05-09T14:34:06.600Z,4.75
2023-05-09T14:36:36.007Z,2.97
2023-05-09T14:39:06.265Z,5.38
2023-05-09T14:41:35.702Z,4.32
2023-05-09T14:44:05.075Z,4.15
2023-05-09T14:46:34.481Z,7.20
2023-05-09T14:49:04.466Z,3.53
2023-05-09T14:51:34.368Z,6.32
2023-05-09T14:54:04.707Z,4.20
2023-05-09T14:56:34.127Z,4.85
2023-05-09T14:59:04.473Z,2.80
2023-05-09T15:01:34.253Z,4.78
2023-05-09T15:04:03.840Z,5.00
2023-05-09T15:06:33.528Z,4.25
2023-05-09T15:09:02.917Z,7.35
2023-05-09T15:11:39.935Z,5.05
2023-05-09T15:14:17.099Z,4.95
2023-05-09T15:16:46.770Z,3.83
2023-05-09T15:19:16.360Z,4.22
2023-05-09T15:21:45.684Z,5.35
2023-05-09T15:24:15.148Z,6.47
2023-05-09T15:26:44.529Z,5.65
2023-05-09T15:29:13.894Z,5.43
2023-05-09T15:31:43.951Z,7.18
2023-05-09T15:34:13.332Z,6.90
2023-05-09T15:36:42.762Z,7.13
2023-05-09T15:39:12.149Z,7.43
2023-05-09T15:41:41.621Z,6.65
2023-05-09T15:44:11.061Z,8.65
2023-05-09T15:46:41.036Z,8.43
2023-05-09T15:49:11.314Z,10.38
2023-05-09T15:51:40.828Z,10.07
2023-05-09T15:54:10.245Z,8.70
2023-05-09T15:56:39.683Z,7.07
2023-05-09T15:59:09.999Z,7.38
2023-05-09T16:01:39.436Z,6.80
2023-05-09T16:04:09.228Z,5.72
2023-05-09T16:06:38.688Z,6.70
2023-05-09T16:09:08.039Z,7.40
2023-05-09T16:11:37.517Z,7.68
2023-05-09T16:14:09.423Z,9.40
2023-05-09T16:16:38.828Z,6.88
2023-05-09T16:19:11.563Z,5.75
2023-05-09T16:21:40.973Z,5.82
2023-05-09T16:24:10.781Z,8.45
2023-05-09T16:26:40.187Z,7.00
2023-05-09T16:29:10.044Z,12.07
2023-05-09T16:31:39.426Z,6.53
2023-05-09T16:34:09.264Z,7.85
2023-05-09T16:36:39.631Z,8.85
2023-05-09T16:39:08.999Z,6.72
2023-05-09T16:41:38.350Z,6.30
2023-05-09T16:44:07.683Z,9.73
2023-05-09T16:46:37.018Z,7.78
2023-05-09T16:49:06.416Z,7.05
2023-05-09T16:51:36.021Z,7.75
2023-05-09T16:54:05.403Z,6.72
2023-05-09T16:56:34.835Z,7.47
2023-05-09T16:59:04.291Z,6.90
2023-05-09T17:01:33.724Z,7.22
2023-05-09T17:04:06.645Z,7.97
2023-05-09T17:06:36.179Z,7.57
2023-05-09T17:09:08.367Z,6.63
2023-05-09T17:11:37.771Z,8.27
2023-05-09T17:14:07.114Z,10.40
2023-05-09T17:16:38.146Z,6.38
2023-05-09T17:19:07.751Z,7.80
2023-05-09T17:21:38.363Z,7.63
2023-05-09T17:24:07.802Z,6.95
2023-05-09T17:26:37.178Z,6.75
2023-05-09T17:29:06.583Z,6.68
2023-05-09T17:31:36.050Z,6.47
2023-05-09T17:34:05.869Z,7.05
2023-05-09T17:36:35.593Z,5.32
2023-05-09T17:39:04.906Z,6.20
2023-05-09T17:41:34.253Z,5.57
2023-05-09T17:44:03.630Z,5.25
2023-05-09T17:46:33.046Z,5.78
2023-05-09T17:49:02.469Z,5.63
2023-05-09T17:51:32.872Z,5.85
2023-05-09T17:54:02.438Z,6.47
2023-05-09T17:56:31.815Z,4.55
2023-05-09T17:59:04.233Z,5.28
2023-05-09T18:01:33.616Z,5.25
2023-05-09T18:04:03.072Z,3.47
2023-05-09T18:06:32.462Z,4.65
2023-05-09T18:09:01.810Z,2.95
2023-05-09T18:11:31.355Z,2.72
2023-05-09T18:14:00.710Z,2.70
2023-05-09T18:16:30.080Z,3.47
2023-05-09T18:18:59.535Z,4.03
2023-05-09T18:21:28.936Z,2.80
2023-05-09T18:23:58.262Z,4.07
2023-05-09T18:26:27.641Z,3.65
2023-05-09T18:28:57.040Z,4.18
2023-05-09T18:31:26.537Z,6.15
2023-05-09T18:33:56.483Z,5.57
2023-05-09T18:36:30.097Z,4.15
2023-05-09T18:38:59.503Z,4.90
2023-05-09T18:41:31.888Z,6.53
2023-05-09T18:44:01.602Z,4.45
2023-05-09T18:46:33.687Z,4.32
2023-05-09T18:51:35.853Z,6.68
2023-05-09T18:54:05.693Z,4.70
2023-05-09T18:56:39.298Z,4.00
2023-05-09T18:59:12.043Z,4.22
2023-05-09T19:01:42.825Z,4.25
2023-05-09T19:04:12.363Z,10.10
2023-05-09T19:06:42.578Z,6.93
2023-05-09T19:09:12.028Z,5.22
2023-05-09T19:11:41.469Z,3.90
2023-05-09T19:14:10.853Z,4.55
2023-05-09T19:16:40.294Z,5.53
2023-05-09T19:19:09.937Z,4.88
2023-05-09T19:21:39.310Z,6.75
2023-05-09T19:24:09.269Z,9.27
2023-05-09T19:26:38.584Z,6.00
2023-05-09T19:29:08.456Z,5.93
2023-05-09T19:31:39.191Z,4.93
2023-05-09T19:34:08.797Z,5.10
2023-05-09T19:36:38.199Z,9.70
2023-05-09T19:39:09.092Z,5.85
2023-05-09T19:41:38.515Z,5.85
2023-05-09T19:44:08.665Z,7.15
2023-05-09T19:46:38.532Z,6.82
2023-05-09T19:49:08.027Z,6.25
2023-05-09T19:51:37.419Z,10.35
2023-05-09T19:54:07.379Z,6.63
2023-05-09T19:56:36.731Z,9.40
2023-05-09T19:59:06.270Z,5.68
2023-05-09T20:01:35.850Z,6.63
2023-05-09T20:04:05.292Z,7.07
2023-05-09T20:06:34.818Z,6.30
2023-05-09T20:09:04.871Z,7.45
2023-05-09T20:11:34.247Z,11.52
2023-05-09T20:14:03.947Z,7.63
2023-05-09T20:16:33.419Z,8.05
2023-05-09T20:19:05.361Z,8.50
2023-05-09T20:21:34.702Z,9.27
2023-05-09T20:24:04.160Z,8.50
2023-05-09T20:26:33.531Z,9.43
2023-05-09T20:29:03.812Z,8.90
2023-05-09T20:31:33.931Z,11.07
2023-05-09T20:34:03.280Z,10.63
2023-05-09T20:36:32.704Z,10.75
2023-05-09T20:39:02.447Z,11.60
2023-05-09T20:41:31.839Z,12.80
2023-05-09T20:44:04.265Z,14.05
2023-05-09T20:46:34.398Z,11.70
2023-05-09T20:49:04.272Z,16.17
2023-05-09T20:51:34.274Z,14.05
2023-05-09T20:54:03.642Z,12.85
2023-05-09T20:56:33.741Z,13.57
2023-05-09T20:59:04.322Z,13.95
2023-05-09T21:01:35.652Z,13.38
2023-05-09T21:04:06.015Z,13.15
2023-05-09T21:06:35.374Z,13.00
2023-05-09T21:09:05.416Z,14.15
2023-05-09T21:11:35.040Z,14.18
2023-05-09T21:14:04.382Z,14.23
2023-05-09T21:16:33.856Z,13.88
2023-05-09T21:19:05.302Z,15.65
2023-05-09T21:21:35.562Z,15.27
2023-05-09T21:24:09.222Z,13.50
2023-05-09T21:26:39.052Z,14.65
2023-05-09T21:29:09.233Z,14.52
2023-05-09T21:31:38.761Z,14.52
2023-05-09T21:34:10.389Z,14.48
2023-05-09T21:36:43.301Z,15.57
2023-05-09T21:39:12.638Z,14.20
2023-05-09T21:41:42.978Z,16.02
2023-05-09T21:44:12.463Z,13.98
2023-05-09T21:46:43.581Z,17.05
2023-05-09T21:49:13.129Z,18.08
2023-05-09T21:51:42.644Z,16.40
2023-05-09T21:54:12.107Z,15.93
2023-05-09T21:56:44.952Z,15.82
2023-05-09T21:59:14.342Z,13.18
2023-05-09T22:01:46.614Z,16.52
2023-05-09T22:06:45.431Z,14.45
2023-05-09T22:09:15.320Z,12.10
2023-05-09T22:11:44.849Z,13.45
2023-05-09T22:14:14.313Z,14.32
2023-05-09T22:16:45.374Z,16.38
2023-05-09T22:19:15.269Z,13.68
2023-05-09T22:21:44.780Z,16.83
2023-05-09T22:24:14.204Z,15.98
2023-05-09T22:26:43.826Z,15.25
2023-05-09T22:29:16.568Z,16.50
2023-05-09T22:31:47.608Z,16.98
2023-05-09T22:34:17.046Z,15.07
2023-05-09T22:36:49.450Z,13.50
2023-05-09T22:41:48.582Z,16.42
2023-05-09T22:44:17.992Z,19.02
2023-05-09T22:46:47.444Z,17.08
2023-05-09T22:49:16.921Z,19.67
2023-05-09T22:51:46.843Z,18.77
2023-05-09T22:54:21.499Z,20.75
2023-05-09T22:56:51.012Z,23.40
2023-05-09T22:59:20.582Z,21.30
2023-05-09T23:01:49.958Z,22.77
2023-05-09T23:04:19.452Z,20.20
2023-05-09T23:06:48.908Z,21.38
2023-05-09T23:09:18.446Z,18.77
2023-05-09T23:11:47.961Z,16.83
2023-05-09T23:14:17.424Z,20.15
2023-05-09T23:16:47.085Z,21.55
2023-05-09T23:19:19.874Z,22.13
2023-05-09T23:21:49.317Z,19.15
2023-05-09T23:24:18.893Z,22.55
2023-05-09T23:26:48.326Z,24.10
2023-05-09T23:29:17.921Z,22.17
2023-05-09T23:31:47.471Z,20.85
2023-05-09T23:34:17.381Z,21.73
2023-05-09T23:36:46.763Z,21.88
2023-05-09T23:39:16.212Z,24.45
2023-05-09T23:41:45.683Z,24.23
2023-05-09T23:44:15.221Z,19.30
2023-05-09T23:46:44.633Z,21.30
2023-05-09T23:49:14.821Z,22.42
2023-05-09T23:51:44.233Z,23.70
2023-05-09T23:54:13.719Z,23.95
2023-05-09T23:56:43.174Z,23.42
2023-05-09T23:59:12.582Z,24.90
